Time;durP1;ratioP1;P1;durP2;ratioP2;P2;SDS_P1;SDS_P2;PMS_P1;PMS_P2;Temp;Humidity;BMP_temperature;BMP_pressure;BME280_temperature;BME280_humidity;BME280_pressure;Samples;Min_cycle;Max_cycle;Signal;HPM_P1;HPM_P2
2021/05/11 00:00:19;;;;;;;12.23;11.83;;;16.30;99.90;;;;;;5031223;28;20960;-67
2021/05/11 00:02:46;;;;;;;11.93;11.53;;;16.30;99.90;;;;;;5031609;28;20449;-68
2021/05/11 00:05:13;;;;;;;12.53;12.13;;;16.20;99.90;;;;;;5031603;28;20868;-67
2021/05/11 00:07:39;;;;;;;12.13;11.73;;;16.20;99.90;;;;;;5031330;28;20545;-68
2021/05/11 00:10:06;;;;;;;11.77;11.37;;;16.20;99.90;;;;;;5031611;28;20436;-68
2021/05/11 00:12:33;;;;;;;12.20;11.80;;;16.20;99.90;;;;;;5031589;28;20441;-68
2021/05/11 00:14:59;;;;;;;12.27;11.57;;;16.20;99.90;;;;;;5031325;28;20857;-68
2021/05/11 00:17:25;;;;;;;11.40;10.97;;;16.20;99.90;;;;;;5031450;28;20445;-68
2021/05/11 00:19:53;;;;;;;11.30;10.90;;;16.20;99.90;;;;;;5031390;28;20453;-67
2021/05/11 00:22:19;;;;;;;11.40;11.10;;;16.30;99.90;;;;;;5031501;28;20475;-68
2021/05/11 00:24:45;;;;;;;11.37;10.87;;;16.20;99.90;;;;;;5031373;28;20547;-68
2021/05/11 00:27:11;;;;;;;11.80;11.40;;;16.20;99.90;;;;;;5031294;28;20496;-68
2021/05/11 00:29:38;;;;;;;11.50;11.10;;;16.10;99.90;;;;;;5031294;28;20456;-68
2021/05/11 00:32:04;;;;;;;11.20;10.80;;;16.10;99.90;;;;;;5031306;28;21018;-67
2021/05/11 00:34:30;;;;;;;11.33;10.93;;;16.10;99.90;;;;;;5031165;28;20489;-67
2021/05/11 00:36:57;;;;;;;11.67;11.27;;;16.10;99.90;;;;;;5031216;28;20453;-68
2021/05/11 00:39:24;;;;;;;11.47;10.97;;;16.10;99.90;;;;;;5031260;28;20449;-68
2021/05/11 00:41:50;;;;;;;10.80;10.50;;;16.10;99.90;;;;;;5031206;28;20781;-68
2021/05/11 00:44:19;;;;;;;11.20;10.80;;;16.00;99.90;;;;;;5031323;28;20522;-68
2021/05/11 00:46:53;;;;;;;10.83;10.33;;;16.00;99.90;;;;;;5031116;28;20453;-68
2021/05/11 00:49:19;;;;;;;10.37;10.07;;;15.90;99.90;;;;;;5031221;28;20449;-67
2021/05/11 00:51:46;;;;;;;10.83;10.43;;;15.90;99.90;;;;;;5031068;28;20949;-67
2021/05/11 00:54:13;;;;;;;10.43;10.10;;;15.80;99.90;;;;;;5031183;28;20502;-68
2021/05/11 00:56:40;;;;;;;10.50;10.10;;;15.70;99.90;;;;;;5030890;28;20441;-68
2021/05/11 00:59:11;;;;;;;10.37;9.97;;;15.70;99.90;;;;;;5031259;28;20528;-68
2021/05/11 01:01:37;;;;;;;10.33;9.93;;;15.70;99.90;;;;;;5031238;28;20479;-68
2021/05/11 01:04:04;;;;;;;10.73;10.23;;;15.60;99.90;;;;;;5031026;28;20441;-68
2021/05/11 01:06:30;;;;;;;10.83;10.43;;;15.60;99.90;;;;;;5030994;28;20449;-68
2021/05/11 01:08:56;;;;;;;11.00;10.40;;;15.50;99.90;;;;;;5031006;28;20457;-68
2021/05/11 01:11:23;;;;;;;11.37;10.87;;;15.40;99.90;;;;;;5032394;28;20451;-68
2021/05/11 01:13:49;;;;;;;12.10;11.40;;;15.40;99.90;;;;;;5034502;28;20449;-68
2021/05/11 01:16:15;;;;;;;10.47;9.97;;;15.40;99.90;;;;;;5034390;28;20488;-68
2021/05/11 01:18:42;;;;;;;10.90;10.40;;;15.40;99.90;;;;;;5034791;28;20456;-68
2021/05/11 01:21:21;;;;;;;10.10;9.73;;;15.40;99.90;;;;;;5034506;28;21140;-68
2021/05/11 01:24:01;;;;;;;10.33;9.83;;;15.40;99.90;;;;;;5034427;28;20449;-68
2021/05/11 01:26:30;;;;;;;10.80;10.20;;;15.40;99.90;;;;;;5034180;28;20997;-68
2021/05/11 01:29:05;;;;;;;11.07;10.60;;;15.30;99.90;;;;;;5034514;28;20452;-67
2021/05/11 01:45:54;;;;;;;9.83;9.43;;;15.30;99.90;;;;;;5034223;28;20441;-68
2021/05/11 01:48:30;;;;;;;9.73;9.13;;;15.20;99.90;;;;;;5034028;28;20448;-68
2021/05/11 01:51:11;;;;;;;10.70;10.10;;;15.20;99.90;;;;;;5034091;28;20543;-68
2021/05/11 01:54:00;;;;;;;11.00;10.20;;;15.30;99.90;;;;;;5033898;28;20503;-68
2021/05/11 01:56:47;;;;;;;10.80;9.80;;;15.30;99.90;;;;;;5033731;28;20543;-68
2021/05/11 02:24:13;;;;;;;11.10;10.40;;;15.10;99.90;;;;;;5008794;28;20436;-68
2021/05/11 02:26:39;;;;;;;11.43;10.70;;;15.20;99.90;;;;;;5033237;28;20460;-68
2021/05/11 02:29:06;;;;;;;12.50;11.60;;;15.10;99.90;;;;;;5033211;28;20452;-68
2021/05/11 02:31:32;;;;;;;13.40;12.30;;;15.10;99.90;;;;;;5033207;28;20441;-68
2021/05/11 02:33:59;;;;;;;11.80;11.10;;;15.10;99.90;;;;;;5032943;28;20499;-68
2021/05/11 02:36:25;;;;;;;11.30;10.60;;;15.10;99.90;;;;;;5032808;28;20485;-68
2021/05/11 02:38:51;;;;;;;10.80;10.20;;;15.00;99.90;;;;;;5032961;28;20445;-67
2021/05/11 02:41:17;;;;;;;12.17;11.47;;;15.00;99.90;;;;;;5033004;28;20449;-67
2021/05/11 02:43:44;;;;;;;11.77;10.87;;;15.00;99.90;;;;;;5032949;28;20441;-67
2021/05/11 02:46:11;;;;;;;10.70;10.07;;;15.00;99.90;;;;;;5032684;28;20465;-68
2021/05/11 02:48:38;;;;;;;10.20;9.53;;;15.00;99.90;;;;;;5032971;28;20500;-67
2021/05/11 02:51:04;;;;;;;10.27;9.67;;;15.00;99.90;;;;;;5032690;28;20441;-68
2021/05/11 02:53:30;;;;;;;9.23;8.70;;;15.00;99.90;;;;;;5032874;28;20494;-67
2021/05/11 02:55:56;;;;;;;11.00;10.27;;;15.00;99.90;;;;;;5032362;28;20488;-68
2021/05/11 02:58:23;;;;;;;11.80;11.00;;;14.90;99.90;;;;;;5032719;28;20862;-67
2021/05/11 03:00:50;;;;;;;10.10;9.40;;;14.90;99.90;;;;;;5032676;28;21003;-67
2021/05/11 03:03:17;;;;;;;11.30;10.50;;;14.90;99.90;;;;;;5032466;28;20461;-68
2021/05/11 03:05:43;;;;;;;12.10;11.30;;;14.80;99.90;;;;;;5032204;28;20984;-68
2021/05/11 03:08:13;;;;;;;10.70;9.90;;;14.90;99.90;;;;;;5032346;28;20504;-67
2021/05/11 03:10:39;;;;;;;11.40;10.53;;;14.80;99.90;;;;;;5032319;28;20453;-67
2021/05/11 03:13:05;;;;;;;11.53;10.80;;;14.80;99.90;;;;;;5032310;28;20456;-68
2021/05/11 03:15:32;;;;;;;12.20;11.30;;;14.90;99.90;;;;;;5032250;28;20481;-67
2021/05/11 03:17:58;;;;;;;10.77;10.07;;;14.80;99.90;;;;;;5032059;28;20851;-68
2021/05/11 03:20:25;;;;;;;11.20;10.40;;;14.80;99.90;;;;;;5032245;28;20445;-67
2021/05/11 03:22:51;;;;;;;11.23;10.00;;;14.80;99.90;;;;;;5032290;28;20452;-68
2021/05/11 03:25:17;;;;;;;10.07;9.03;;;14.70;99.90;;;;;;5032084;28;20469;-67
2021/05/11 03:27:43;;;;;;;9.90;9.23;;;14.70;99.90;;;;;;5031896;28;20441;-67
2021/05/11 03:30:11;;;;;;;13.40;11.10;;;14.70;99.90;;;;;;5032114;28;20452;-68
2021/05/11 03:32:37;;;;;;;11.50;10.50;;;14.70;99.90;;;;;;5032006;28;20453;-67
2021/05/11 03:35:04;;;;;;;10.50;9.70;;;14.70;99.90;;;;;;5031225;28;20512;-67
2021/05/11 03:37:31;;;;;;;12.20;11.03;;;14.70;99.90;;;;;;5031814;28;20444;-67
2021/05/11 03:39:57;;;;;;;9.77;8.97;;;14.70;99.90;;;;;;5031881;28;20444;-67
2021/05/11 03:42:26;;;;;;;11.00;10.20;;;14.70;99.90;;;;;;5031937;28;20445;-68
2021/05/11 03:44:55;;;;;;;11.77;10.77;;;14.70;99.90;;;;;;5031756;28;20994;-67
2021/05/11 03:47:22;;;;;;;11.87;10.77;;;14.70;99.90;;;;;;5031843;28;20495;-67
2021/05/11 03:49:49;;;;;;;12.13;11.10;;;14.60;99.90;;;;;;5031824;28;21017;-67
2021/05/11 03:52:15;;;;;;;13.77;12.40;;;14.60;99.90;;;;;;5031756;28;20456;-67
2021/05/11 03:54:42;;;;;;;12.90;11.90;;;14.60;99.90;;;;;;5031538;28;21000;-67
2021/05/11 03:57:09;;;;;;;13.27;12.37;;;14.60;99.90;;;;;;5031585;28;20947;-67
2021/05/11 03:59:36;;;;;;;15.47;14.00;;;14.60;99.90;;;;;;5031850;28;20984;-67
2021/05/11 04:02:02;;;;;;;14.10;13.00;;;14.60;99.90;;;;;;5031557;28;20449;-67
2021/05/11 04:04:28;;;;;;;15.13;13.90;;;14.70;99.90;;;;;;5031535;28;20968;-67
2021/05/11 04:06:55;;;;;;;15.57;14.27;;;14.70;99.90;;;;;;5031421;28;20448;-68
2021/05/11 04:09:26;;;;;;;15.50;14.30;;;14.70;99.90;;;;;;5031195;28;20456;-68
2021/05/11 04:12:05;;;;;;;14.73;13.63;;;14.70;99.90;;;;;;5031577;28;20476;-67
2021/05/11 04:17:30;;;;;;;14.23;12.97;;;14.80;99.90;;;;;;5031331;28;20424;-66
2021/05/11 04:19:56;;;;;;;14.33;12.90;;;14.80;99.90;;;;;;5031516;28;20433;-66
2021/05/11 04:22:22;;;;;;;14.53;12.27;;;14.80;99.90;;;;;;5031326;28;20506;-68
2021/05/11 04:24:48;;;;;;;15.73;14.10;;;14.70;99.90;;;;;;5031287;28;21056;-67
2021/05/11 04:27:15;;;;;;;14.10;12.80;;;14.70;99.90;;;;;;5031232;28;20971;-67
2021/05/11 04:29:42;;;;;;;15.23;12.97;;;14.80;99.90;;;;;;5031393;28;20824;-67
2021/05/11 04:32:08;;;;;;;14.53;13.40;;;14.90;99.90;;;;;;5031209;28;20437;-67
2021/05/11 04:34:37;;;;;;;13.63;12.33;;;14.90;99.90;;;;;;5031106;28;20468;-67
2021/05/11 04:37:04;;;;;;;13.43;12.27;;;15.00;99.90;;;;;;5031307;28;20494;-66
2021/05/11 04:39:30;;;;;;;12.70;11.60;;;15.00;99.90;;;;;;5031376;28;20464;-64
2021/05/11 04:41:59;;;;;;;11.30;10.70;;;14.90;99.90;;;;;;5030771;28;20449;-66
2021/05/11 04:44:33;;;;;;;11.00;10.20;;;14.90;99.90;;;;;;5030734;28;20461;-66
2021/05/11 04:47:04;;;;;;;11.57;10.90;;;14.90;99.90;;;;;;5034625;28;20445;-66
2021/05/11 04:49:30;;;;;;;12.63;11.63;;;14.90;99.90;;;;;;5035047;28;21016;-67
2021/05/11 04:51:56;;;;;;;12.63;11.37;;;14.90;99.90;;;;;;5033875;28;20453;-67
2021/05/11 04:54:22;;;;;;;11.73;10.83;;;14.90;99.90;;;;;;5034765;28;20460;-67
2021/05/11 04:56:49;;;;;;;10.70;9.97;;;14.90;99.90;;;;;;5034744;28;20452;-67
2021/05/11 04:59:15;;;;;;;10.90;10.00;;;14.90;99.90;;;;;;5034769;28;20441;-67
2021/05/11 05:01:44;;;;;;;10.80;10.03;;;15.00;99.90;;;;;;5034705;28;20813;-69
2021/05/11 05:04:11;;;;;;;12.00;11.20;;;15.00;99.90;;;;;;5035232;28;20508;-67
2021/05/11 05:06:37;;;;;;;12.60;11.63;;;15.10;99.90;;;;;;5034402;28;20528;-67
2021/05/11 05:09:05;;;;;;;16.27;13.00;;;15.10;99.90;;;;;;5034573;28;20531;-68
2021/05/11 05:11:31;;;;;;;13.23;12.00;;;15.20;99.90;;;;;;5034406;28;20445;-67
2021/05/11 05:13:59;;;;;;;13.50;12.60;;;15.20;99.90;;;;;;5034299;28;20449;-68
2021/05/11 05:16:25;;;;;;;13.60;12.50;;;15.30;99.90;;;;;;5034090;28;20912;-67
2021/05/11 05:18:52;;;;;;;14.00;12.60;;;15.30;99.90;;;;;;5034464;28;20447;-67
2021/05/11 05:21:18;;;;;;;13.20;12.40;;;15.30;99.90;;;;;;5034356;28;20444;-69
2021/05/11 05:23:47;;;;;;;13.73;12.43;;;15.30;99.90;;;;;;5034354;28;20447;-67
2021/05/11 05:26:16;;;;;;;13.37;12.37;;;15.30;99.90;;;;;;5034650;28;20467;-68
2021/05/11 05:28:43;;;;;;;14.83;13.93;;;15.40;99.90;;;;;;5035157;28;20445;-69
2021/05/11 05:31:10;;;;;;;14.60;13.40;;;15.40;99.90;;;;;;5035471;28;20441;-68
2021/05/11 05:33:38;;;;;;;15.13;13.77;;;15.60;99.90;;;;;;5035376;28;20448;-68
2021/05/11 05:36:07;;;;;;;13.77;12.47;;;15.60;99.90;;;;;;5034521;28;20489;-68
2021/05/11 05:38:34;;;;;;;13.90;12.83;;;15.80;99.90;;;;;;5035072;28;20449;-69
2021/05/11 05:41:02;;;;;;;14.77;13.77;;;15.90;99.90;;;;;;5034921;28;20445;-67
2021/05/11 05:43:28;;;;;;;14.30;13.30;;;16.00;99.90;;;;;;5034473;28;20449;-68
2021/05/11 05:45:55;;;;;;;15.07;13.60;;;16.30;99.90;;;;;;5034557;28;20828;-68
2021/05/11 05:48:21;;;;;;;14.30;13.43;;;16.30;99.90;;;;;;5034663;28;20794;-68
2021/05/11 05:50:52;;;;;;;14.83;14.10;;;16.40;99.90;;;;;;5034965;28;20445;-68
2021/05/11 05:53:24;;;;;;;14.00;13.20;;;16.40;99.90;;;;;;5035138;28;20477;-68
2021/05/11 05:55:50;;;;;;;15.40;14.30;;;16.40;99.90;;;;;;5034379;28;20512;-67
2021/05/11 05:58:16;;;;;;;14.80;13.63;;;16.40;99.90;;;;;;5033314;28;20518;-67
2021/05/11 06:00:43;;;;;;;14.67;13.67;;;16.50;99.90;;;;;;5033690;28;20805;-68
2021/05/11 06:03:27;;;;;;;14.07;13.37;;;16.60;99.90;;;;;;5033638;28;20449;-67
2021/05/11 06:05:54;;;;;;;15.20;14.30;;;16.70;99.90;;;;;;5034017;28;20469;-67
2021/05/11 06:08:21;;;;;;;14.83;13.90;;;16.70;99.90;;;;;;5033302;28;20449;-68
2021/05/11 06:10:49;;;;;;;14.97;14.17;;;16.80;99.90;;;;;;5033434;28;20449;-67
2021/05/11 06:13:18;;;;;;;14.13;13.40;;;16.90;99.90;;;;;;5033357;28;20449;-68
2021/05/11 06:18:28;;;;;;;13.70;13.03;;;17.30;99.90;;;;;;5035053;28;20832;-68
2021/05/11 06:20:55;;;;;;;14.90;13.70;;;17.40;99.90;;;;;;5033518;28;20452;-69
2021/05/11 06:23:22;;;;;;;14.50;13.57;;;17.50;99.90;;;;;;5033176;28;20506;-69
2021/05/11 06:25:48;;;;;;;14.90;14.30;;;17.50;99.90;;;;;;5033607;28;20473;-68
2021/05/11 06:28:14;;;;;;;16.03;15.03;;;17.50;99.90;;;;;;5033919;28;20499;-68
2021/05/11 06:30:40;;;;;;;15.37;14.57;;;17.50;99.90;;;;;;5033450;28;20499;-68
2021/05/11 06:33:08;;;;;;;16.93;15.47;;;17.40;99.90;;;;;;5033129;28;20452;-67
2021/05/11 06:35:35;;;;;;;16.10;15.00;;;17.40;99.90;;;;;;5033054;28;20489;-68
2021/05/11 06:38:01;;;;;;;14.90;14.30;;;17.30;99.90;;;;;;5033014;28;20452;-68
2021/05/11 06:40:29;;;;;;;14.70;14.00;;;17.20;99.90;;;;;;5033874;28;20919;-69
2021/05/11 06:42:57;;;;;;;15.43;14.30;;;17.20;99.90;;;;;;5034308;28;20452;-70
2021/05/11 06:48:07;;;;;;;14.57;13.87;;;17.10;99.90;;;;;;5032532;28;20472;-69
2021/05/11 06:50:39;;;;;;;14.80;14.00;;;17.10;99.90;;;;;;5033317;28;20814;-68
2021/05/11 06:53:15;;;;;;;13.90;13.10;;;17.10;99.90;;;;;;5033595;28;20851;-68
2021/05/11 06:55:44;;;;;;;15.00;14.33;;;17.10;99.90;;;;;;5032823;28;20886;-68
2021/05/11 06:58:11;;;;;;;14.87;13.97;;;17.10;99.90;;;;;;5032525;28;20479;-69
2021/05/11 07:00:41;;;;;;;14.70;13.60;;;17.10;99.90;;;;;;5032780;28;20449;-69
2021/05/11 07:03:07;;;;;;;14.97;14.27;;;17.10;99.90;;;;;;5032796;28;21030;-68
2021/05/11 07:05:35;;;;;;;14.47;13.87;;;17.20;99.90;;;;;;5033410;28;20848;-68
2021/05/11 07:08:11;;;;;;;16.30;15.40;;;17.30;99.90;;;;;;5033104;28;20540;-69
2021/05/11 07:10:38;;;;;;;14.30;13.60;;;17.50;99.90;;;;;;5032850;28;20839;-70
2021/05/11 07:13:13;;;;;;;14.47;13.87;;;17.70;99.90;;;;;;5032269;28;20456;-67
2021/05/11 07:15:41;;;;;;;15.30;14.17;;;17.70;99.90;;;;;;5032617;28;20512;-68
2021/05/11 07:18:09;;;;;;;15.27;14.60;;;17.90;99.90;;;;;;5032725;28;20539;-69
2021/05/11 07:20:35;;;;;;;17.17;15.57;;;18.20;99.90;;;;;;5032728;28;20441;-70
2021/05/11 07:23:02;;;;;;;15.90;15.03;;;18.60;99.90;;;;;;5032156;28;20456;-69
2021/05/11 07:25:32;;;;;;;16.40;15.60;;;18.90;99.90;;;;;;5032314;28;20465;-68
2021/05/11 07:30:40;;;;;;;15.73;14.93;;;19.20;99.90;;;;;;5030246;28;20440;-68
2021/05/11 07:33:07;;;;;;;16.47;15.57;;;19.10;99.90;;;;;;5033405;28;20437;-68
2021/05/11 07:35:35;;;;;;;17.27;16.47;;;19.30;99.90;;;;;;5032321;28;20754;-68
2021/05/11 07:38:01;;;;;;;17.10;16.13;;;19.10;99.90;;;;;;5031811;28;21225;-68
2021/05/11 07:40:27;;;;;;;16.00;15.30;;;19.10;99.90;;;;;;5032432;28;20452;-68
2021/05/11 07:42:53;;;;;;;14.80;14.10;;;19.10;99.90;;;;;;5032610;28;20441;-68
2021/05/11 07:45:29;;;;;;;15.73;14.70;;;19.10;99.90;;;;;;5032429;28;20461;-68
2021/05/11 07:48:13;;;;;;;16.07;15.27;;;19.20;99.90;;;;;;5032162;28;20474;-68
2021/05/11 07:51:01;;;;;;;15.60;14.80;;;19.20;99.90;;;;;;5031833;28;20542;-68
2021/05/11 08:02:04;;;;;;;15.23;14.53;;;19.50;99.90;;;;;;5031616;28;20452;-69
2021/05/11 08:04:35;;;;;;;15.67;15.07;;;19.60;99.90;;;;;;5031884;28;20537;-68
2021/05/11 08:10:08;;;;;;;16.10;15.50;;;19.90;99.90;;;;;;5032741;28;20741;-70
2021/05/11 08:15:24;;;;;;;16.50;15.70;;;20.10;99.90;;;;;;5011115;28;20495;-69
2021/05/11 08:17:55;;;;;;;16.80;16.10;;;20.30;99.90;;;;;;5032280;28;20449;-69
2021/05/11 08:20:41;;;;;;;17.40;16.30;;;20.60;99.90;;;;;;5033694;28;20456;-68
2021/05/11 08:28:39;;;;;;;17.43;16.53;;;21.10;99.90;;;;;;5035629;28;20421;-68
2021/05/11 08:31:06;;;;;;;16.67;16.00;;;21.00;99.90;;;;;;5036532;28;20448;-68
2021/05/11 08:33:32;;;;;;;17.57;16.73;;;21.10;99.90;;;;;;5037019;28;20450;-68
2021/05/11 08:35:59;;;;;;;16.67;15.90;;;21.60;99.90;;;;;;5036964;28;21011;-69
2021/05/11 08:38:26;;;;;;;18.07;16.87;;;21.80;99.90;;;;;;5036803;28;20931;-68
2021/05/11 08:40:52;;;;;;;17.77;16.77;;;22.10;99.90;;;;;;5036614;28;20935;-69
2021/05/11 08:43:30;;;;;;;18.03;17.17;;;22.20;99.90;;;;;;5036817;28;20815;-70
2021/05/11 08:45:59;;;;;;;18.03;17.13;;;22.30;98.80;;;;;;5036497;28;20476;-68
2021/05/11 08:48:25;;;;;;;17.90;17.03;;;22.30;98.50;;;;;;5036089;28;20831;-69
2021/05/11 08:50:58;;;;;;;18.17;17.27;;;22.50;99.60;;;;;;5036073;28;20441;-69
2021/05/11 09:04:39;;;;;;;18.30;17.50;;;23.20;93.10;;;;;;5035853;28;20860;-69
2021/05/11 09:24:07;;;;;;;18.90;18.00;;;22.50;93.30;;;;;;5034886;28;20439;-69
2021/05/11 09:26:45;;;;;;;20.00;19.00;;;23.00;93.00;;;;;;5034662;28;20449;-68
2021/05/11 09:29:30;;;;;;;20.17;19.07;;;23.40;90.60;;;;;;5035009;28;20788;-68
2021/05/11 09:32:16;;;;;;;20.00;19.10;;;23.60;89.90;;;;;;5033573;28;20590;-69
2021/05/11 09:34:55;;;;;;;20.43;19.33;;;23.60;89.60;;;;;;5034501;28;20567;-69
2021/05/11 09:54:33;;;;;;;21.33;20.10;;;24.00;82.10;;;;;;5034081;28;20440;-69
2021/05/11 09:57:10;;;;;;;20.03;18.93;;;23.70;81.00;;;;;;5034173;28;20501;-68
2021/05/11 10:00:19;;;;;;;21.30;20.27;;;23.50;79.30;;;;;;5034162;28;20467;-68
2021/05/11 10:48:24;;;;;;;21.53;20.30;;;21.10;99.30;;;;;;5032676;28;20437;-68
2021/05/11 10:50:54;;;;;;;21.27;20.27;;;21.10;99.90;;;;;;5032742;28;20571;-68
2021/05/11 10:53:41;;;;;;;22.23;20.70;;;21.10;99.90;;;;;;5032573;28;20455;-67
2021/05/11 10:56:56;;;;;;;20.33;19.43;;;21.40;99.70;;;;;;5032304;28;20988;-67
2021/05/11 10:59:42;;;;;;;21.00;19.90;;;21.80;99.20;;;;;;5032460;28;20458;-68
2021/05/11 11:02:37;;;;;;;20.07;19.07;;;22.00;97.20;;;;;;5032551;28;20923;-70
2021/05/11 11:05:04;;;;;;;20.10;19.20;;;22.10;96.80;;;;;;5032394;28;20472;-68
2021/05/11 11:07:32;;;;;;;19.37;18.37;;;22.50;93.30;;;;;;5032209;28;20448;-69
2021/05/11 11:10:00;;;;;;;20.27;19.23;;;22.70;91.10;;;;;;5032189;28;20449;-68
2021/05/11 11:12:35;;;;;;;19.20;18.40;;;22.70;89.10;;;;;;5032356;28;20829;-68
2021/05/11 11:15:03;;;;;;;19.30;18.40;;;22.70;86.30;;;;;;5032128;28;20468;-68
2021/05/11 11:17:30;;;;;;;18.97;17.97;;;22.60;83.00;;;;;;5031917;28;20796;-67
2021/05/11 11:20:01;;;;;;;18.47;17.60;;;22.50;82.20;;;;;;5032179;28;20843;-67
2021/05/11 11:25:15;;;;;;;18.70;17.90;;;22.40;84.30;;;;;;5031999;28;20971;-68
2021/05/11 11:27:41;;;;;;;19.83;18.83;;;22.40;87.10;;;;;;5031952;28;20460;-69
2021/05/11 11:30:09;;;;;;;19.20;18.20;;;22.30;86.60;;;;;;5032628;28;20445;-68
2021/05/11 11:32:36;;;;;;;19.67;18.87;;;22.50;87.00;;;;;;5032788;28;20440;-68
2021/05/11 11:35:04;;;;;;;18.57;17.77;;;22.70;85.50;;;;;;5032191;28;20483;-69
2021/05/11 11:37:30;;;;;;;19.57;18.40;;;22.50;85.00;;;;;;5032596;28;20449;-70
2021/05/11 11:39:59;;;;;;;19.27;18.07;;;22.40;84.50;;;;;;5032550;28;20540;-68
2021/05/11 11:42:28;;;;;;;18.40;17.60;;;22.20;85.10;;;;;;5031878;28;20522;-68
2021/05/11 11:44:57;;;;;;;20.70;19.50;;;22.10;87.20;;;;;;5031884;28;20535;-68
2021/05/11 11:47:24;;;;;;;21.10;20.10;;;22.10;86.30;;;;;;5031590;28;20464;-68
2021/05/11 11:49:53;;;;;;;20.60;19.70;;;22.00;88.30;;;;;;5031673;28;20477;-67
2021/05/11 11:52:25;;;;;;;20.30;19.30;;;21.90;88.30;;;;;;5031688;28;20811;-67
2021/05/11 11:55:07;;;;;;;19.07;18.17;;;21.80;88.80;;;;;;5031121;28;20473;-69
2021/05/11 11:57:45;;;;;;;19.20;17.90;;;21.80;90.10;;;;;;5032133;28;20448;-68
2021/05/11 12:00:14;;;;;;;19.67;18.87;;;21.70;87.10;;;;;;5031820;28;20444;-68
2021/05/11 12:02:52;;;;;;;21.07;19.90;;;21.50;91.40;;;;;;5031479;28;20452;-68
2021/05/11 12:05:18;;;;;;;21.40;19.97;;;21.20;94.30;;;;;;5031565;28;20476;-67
2021/05/11 12:07:57;;;;;;;20.60;19.30;;;21.20;96.10;;;;;;5031320;28;20441;-68
2021/05/11 12:10:24;;;;;;;19.90;18.80;;;21.40;96.40;;;;;;5031303;28;20455;-68
2021/05/11 12:12:51;;;;;;;20.47;19.53;;;21.40;97.10;;;;;;5031304;28;20518;-68
2021/05/11 12:15:20;;;;;;;20.37;19.00;;;21.50;97.00;;;;;;5031326;28;20462;-67
2021/05/11 12:17:48;;;;;;;21.17;19.87;;;21.70;96.90;;;;;;5031292;28;20786;-68
2021/05/11 12:20:22;;;;;;;21.47;20.07;;;21.70;96.20;;;;;;5032011;28;20445;-70
2021/05/11 12:22:48;;;;;;;21.67;20.50;;;21.50;96.50;;;;;;5032395;28;20471;-68
2021/05/11 12:25:23;;;;;;;23.23;21.50;;;21.40;96.80;;;;;;5031639;28;20994;-69
2021/05/11 12:27:50;;;;;;;23.17;21.40;;;21.20;98.40;;;;;;5031175;28;20444;-68
2021/05/11 12:30:18;;;;;;;21.83;20.60;;;21.10;98.20;;;;;;5031304;28;20445;-69
2021/05/11 12:32:44;;;;;;;21.63;20.53;;;21.10;98.30;;;;;;5031183;28;20449;-67
2021/05/11 12:35:12;;;;;;;22.47;21.07;;;20.90;97.60;;;;;;5031087;28;20492;-68
2021/05/11 12:37:45;;;;;;;20.90;19.90;;;21.10;98.80;;;;;;5031142;28;20445;-67
2021/05/11 12:40:23;;;;;;;20.43;19.53;;;21.20;98.60;;;;;;5031541;28;20476;-67
2021/05/11 12:42:50;;;;;;;21.20;20.10;;;21.20;97.80;;;;;;5030996;28;20460;-69
2021/05/11 12:45:16;;;;;;;21.40;20.40;;;21.20;97.10;;;;;;5031463;28;20480;-69
2021/05/11 12:47:46;;;;;;;20.47;19.40;;;21.90;95.70;;;;;;5031627;28;20467;-68
2021/05/11 12:50:17;;;;;;;19.70;18.90;;;22.20;92.80;;;;;;5031643;28;20451;-68
2021/05/11 12:52:44;;;;;;;18.70;18.00;;;22.60;92.00;;;;;;5031084;28;20515;-68
2021/05/11 12:55:15;;;;;;;18.23;17.43;;;22.70;90.30;;;;;;5031318;28;20469;-68
2021/05/11 12:57:54;;;;;;;19.97;18.70;;;22.60;87.30;;;;;;5031285;28;20487;-69
2021/05/11 13:00:34;;;;;;;19.50;18.60;;;22.40;86.10;;;;;;5031424;28;20460;-68
2021/05/11 13:03:15;;;;;;;18.07;17.37;;;22.30;88.10;;;;;;5030938;28;20449;-68
2021/05/11 13:14:33;;;;;;;19.77;18.90;;;20.70;93.30;;;;;;5034899;28;20424;-68
2021/05/11 13:17:04;;;;;;;20.07;19.17;;;20.30;94.30;;;;;;5034085;28;20480;-68
2021/05/11 13:22:25;;;;;;;20.97;19.97;;;19.80;98.70;;;;;;5034621;28;20420;-70
2021/05/11 13:27:40;;;;;;;22.13;20.80;;;19.50;99.90;;;;;;5034314;28;20580;-67
2021/05/11 13:33:01;;;;;;;20.63;19.63;;;19.30;99.90;;;;;;5034151;28;20471;-68
2021/05/11 13:35:27;;;;;;;20.60;19.57;;;19.30;99.90;;;;;;5033861;28;21037;-69
2021/05/11 13:37:54;;;;;;;19.93;19.03;;;19.10;99.90;;;;;;5034181;28;20480;-69
2021/05/11 13:40:20;;;;;;;21.47;20.37;;;19.00;99.90;;;;;;5034170;28;20448;-68
2021/05/11 13:42:46;;;;;;;22.27;20.60;;;18.90;99.90;;;;;;5033943;28;20460;-68
2021/05/11 13:45:13;;;;;;;21.10;20.00;;;18.90;99.90;;;;;;5034085;28;20461;-68
2021/05/11 13:47:40;;;;;;;23.33;21.87;;;18.80;99.90;;;;;;5034120;28;20452;-69
2021/05/11 13:50:11;;;;;;;24.90;23.20;;;18.70;99.90;;;;;;5033743;28;20440;-67
2021/05/11 13:52:37;;;;;;;24.70;23.20;;;18.40;99.90;;;;;;5033818;28;20453;-67
2021/05/11 13:55:14;;;;;;;24.13;22.60;;;18.10;99.90;;;;;;5033653;28;20841;-68
2021/05/11 14:03:07;;;;;;;20.83;19.43;;;17.80;99.90;;;;;;5033786;28;20432;-69
2021/05/11 14:05:34;;;;;;;20.00;18.60;;;17.70;99.90;;;;;;5033426;28;20976;-68
2021/05/11 14:08:01;;;;;;;20.60;19.33;;;17.60;99.90;;;;;;5033327;28;20458;-68
2021/05/11 14:10:27;;;;;;;21.20;19.80;;;17.40;99.90;;;;;;5033798;28;20959;-68
2021/05/11 14:12:54;;;;;;;20.87;19.57;;;17.40;99.90;;;;;;5033508;28;20449;-69
2021/05/11 14:15:20;;;;;;;21.33;20.07;;;17.40;99.90;;;;;;5033288;28;21033;-68
2021/05/11 14:17:46;;;;;;;20.63;19.63;;;17.30;99.90;;;;;;5032703;28;20445;-68
2021/05/11 14:20:13;;;;;;;20.90;19.53;;;17.20;99.90;;;;;;5033269;28;20448;-68
2021/05/11 14:22:40;;;;;;;21.87;20.57;;;17.20;99.90;;;;;;5033118;28;20464;-67
2021/05/11 14:25:07;;;;;;;21.67;20.20;;;17.10;99.90;;;;;;5033226;28;20976;-68
2021/05/11 14:27:34;;;;;;;19.17;18.27;;;16.90;99.90;;;;;;5033369;28;20445;-68
2021/05/11 14:30:00;;;;;;;18.90;17.90;;;16.90;99.90;;;;;;5033119;28;20941;-68
2021/05/11 14:32:26;;;;;;;22.17;20.97;;;16.90;99.90;;;;;;5033167;28;20451;-69
2021/05/11 14:34:52;;;;;;;20.43;19.33;;;17.00;99.90;;;;;;5033773;28;20499;-69
2021/05/11 14:37:19;;;;;;;21.07;19.77;;;17.00;99.90;;;;;;5033502;28;20484;-68
2021/05/11 14:39:46;;;;;;;20.50;19.40;;;17.10;99.90;;;;;;5033384;28;20856;-67
2021/05/11 14:42:12;;;;;;;20.90;19.70;;;17.10;99.90;;;;;;5033531;28;20452;-69
2021/05/11 14:44:38;;;;;;;20.37;19.27;;;17.30;99.90;;;;;;5033287;28;20472;-69
2021/05/11 14:47:05;;;;;;;20.77;19.40;;;17.30;99.90;;;;;;5032917;28;20441;-68
2021/05/11 14:49:33;;;;;;;20.33;19.20;;;17.40;99.90;;;;;;5033258;28;20452;-68
2021/05/11 14:51:59;;;;;;;21.13;19.87;;;17.30;99.90;;;;;;5033073;28;20456;-69
2021/05/11 14:54:25;;;;;;;21.53;20.23;;;17.50;99.90;;;;;;5033133;28;20468;-68
2021/05/11 14:56:52;;;;;;;22.30;21.00;;;17.60;99.90;;;;;;5033130;28;20481;-68
2021/05/11 14:59:19;;;;;;;22.63;21.20;;;17.70;99.90;;;;;;5032827;28;20445;-68
2021/05/11 15:01:45;;;;;;;23.23;21.83;;;17.60;99.90;;;;;;5032700;28;20445;-68
2021/05/11 15:04:11;;;;;;;24.00;22.23;;;17.60;99.90;;;;;;5032825;28;20445;-68
2021/05/11 15:06:38;;;;;;;22.77;21.50;;;17.60;99.90;;;;;;5032793;28;20448;-68
2021/05/11 15:09:07;;;;;;;23.17;21.77;;;17.60;99.90;;;;;;5032307;28;20897;-68
2021/05/11 15:11:33;;;;;;;24.07;22.57;;;17.60;99.90;;;;;;5032629;28;20460;-68
2021/05/11 15:14:01;;;;;;;25.40;23.90;;;17.60;99.90;;;;;;5032364;28;20449;-71
2021/05/11 15:16:27;;;;;;;24.33;22.47;;;17.60;99.90;;;;;;5032741;28;20511;-67
2021/05/11 15:18:54;;;;;;;23.03;21.70;;;17.70;99.90;;;;;;5032038;28;20449;-67
2021/05/11 15:21:20;;;;;;;23.20;21.50;;;17.70;99.90;;;;;;5032280;28;20812;-67
2021/05/11 15:23:47;;;;;;;22.90;21.43;;;17.50;99.90;;;;;;5032079;28;20445;-65
2021/05/11 15:26:16;;;;;;;22.97;21.60;;;17.50;99.90;;;;;;5032249;28;20465;-67
2021/05/11 15:28:42;;;;;;;22.33;20.80;;;17.50;99.90;;;;;;5031727;28;20498;-68
2021/05/11 15:31:10;;;;;;;21.90;20.80;;;17.70;99.90;;;;;;5031732;28;20511;-67
2021/05/11 15:33:36;;;;;;;24.60;22.63;;;17.90;99.90;;;;;;5031521;28;20447;-67
2021/05/11 15:36:03;;;;;;;22.40;21.10;;;18.00;99.90;;;;;;5031772;28;20496;-67
2021/05/11 15:38:31;;;;;;;23.53;22.10;;;18.10;99.90;;;;;;5031666;28;20448;-67
2021/05/11 15:40:57;;;;;;;25.33;23.83;;;18.00;99.90;;;;;;5032176;28;20940;-67
2021/05/11 15:43:24;;;;;;;24.97;23.47;;;18.00;99.90;;;;;;5032741;28;20453;-67